createdAt,value
2018-04-19T00:02:10.821Z,11.40
2018-04-19T00:05:33.265Z,11.40
2018-04-19T00:08:55.719Z,11.40
2018-04-19T00:12:18.157Z,11.40
2018-04-19T00:15:40.594Z,11.30
2018-04-19T00:19:03.040Z,11.30
2018-04-19T00:22:25.492Z,11.30
2018-04-19T00:25:47.929Z,11.30
2018-04-19T00:29:11.151Z,11.30
2018-04-19T00:32:33.595Z,11.20
2018-04-19T00:35:56.033Z,11.20
2018-04-19T00:39:19.235Z,11.30
2018-04-19T00:42:41.672Z,11.20
2018-04-19T00:46:04.180Z,11.30
2018-04-19T00:49:26.605Z,11.30
2018-04-19T00:53:00.834Z,11.30
2018-04-19T00:56:23.261Z,11.30
2018-04-19T00:59:45.700Z,11.30
2018-04-19T01:03:08.145Z,11.30
2018-04-19T01:06:31.344Z,11.30
2018-04-19T01:09:53.789Z,11.20
2018-04-19T01:13:16.232Z,11.20
2018-04-19T01:16:38.680Z,11.20
2018-04-19T01:20:01.133Z,11.20
2018-04-19T01:23:23.569Z,11.20
2018-04-19T01:26:46.009Z,11.20
2018-04-19T01:30:08.455Z,11.20
2018-04-19T01:33:30.905Z,11.20
2018-04-19T01:36:53.344Z,11.20
2018-04-19T01:40:15.793Z,11.30
2018-04-19T01:43:39.006Z,11.20
2018-04-19T01:47:01.445Z,11.20
2018-04-19T01:50:23.889Z,11.20
2018-04-19T01:53:47.097Z,11.10
2018-04-19T01:57:09.553Z,11.10
2018-04-19T02:00:31.994Z,11.10
2018-04-19T02:03:54.436Z,11.00
2018-04-19T02:07:16.881Z,11.00
2018-04-19T02:10:39.326Z,10.90
2018-04-19T02:14:01.756Z,10.90
2018-04-19T02:17:24.965Z,10.80
2018-04-19T02:20:47.399Z,10.80
2018-04-19T02:24:09.837Z,10.80
2018-04-19T02:27:32.384Z,10.80
2018-04-19T02:30:54.825Z,10.70
2018-04-19T02:34:17.261Z,10.70
2018-04-19T02:37:40.482Z,10.60
2018-04-19T02:41:02.918Z,10.60
2018-04-19T02:44:26.119Z,10.60
2018-04-19T02:47:48.565Z,10.60
2018-04-19T02:51:11.799Z,10.50
2018-04-19T02:54:34.246Z,10.50
2018-04-19T02:57:56.685Z,10.50
2018-04-19T03:01:19.885Z,10.40
2018-04-19T03:04:42.329Z,10.40
2018-04-19T03:08:05.532Z,10.40
2018-04-19T03:11:27.982Z,10.40
2018-04-19T03:14:51.188Z,10.40
2018-04-19T03:18:13.634Z,10.30
2018-04-19T03:21:36.080Z,10.30
2018-04-19T03:24:59.373Z,10.30
2018-04-19T03:28:22.591Z,10.40
2018-04-19T03:31:45.025Z,10.40
2018-04-19T03:35:08.237Z,10.40
2018-04-19T03:38:30.709Z,10.40
2018-04-19T03:41:53.158Z,10.40
2018-04-19T03:45:15.597Z,10.40
2018-04-19T03:48:38.815Z,10.30
2018-04-19T03:52:01.240Z,10.30
2018-04-19T03:55:24.462Z,10.20
2018-04-19T03:58:46.910Z,10.20
2018-04-19T04:02:09.345Z,10.20
2018-04-19T04:05:31.873Z,10.20
2018-04-19T04:08:54.346Z,10.20
2018-04-19T04:12:17.657Z,10.20
2018-04-19T04:15:40.097Z,10.20
2018-04-19T04:19:14.476Z,10.20
2018-04-19T04:26:35.717Z,10.20
2018-04-19T04:29:58.158Z,10.20
2018-04-19T04:33:20.622Z,10.10
2018-04-19T04:36:43.057Z,10.20
2018-04-19T04:40:06.266Z,10.10
2018-04-19T04:43:28.697Z,10.10
2018-04-19T04:46:51.141Z,10.10
2018-04-19T04:50:13.601Z,10.10
2018-04-19T04:53:36.077Z,10.10
2018-04-19T04:56:58.545Z,10.20
2018-04-19T05:00:21.085Z,10.20
2018-04-19T05:03:43.526Z,10.20
2018-04-19T05:07:05.972Z,10.30
2018-04-19T05:10:29.182Z,10.30
2018-04-19T05:13:51.630Z,10.30
2018-04-19T05:17:14.073Z,10.30
2018-04-19T05:20:37.290Z,10.50
2018-04-19T05:23:59.729Z,10.50
2018-04-19T05:27:22.937Z,10.70
2018-04-19T05:30:45.393Z,10.70
2018-04-19T05:34:07.838Z,10.80
2018-04-19T05:37:31.046Z,11.30
2018-04-19T05:40:53.494Z,11.30
2018-04-19T05:44:16.701Z,12.30
2018-04-19T05:47:39.144Z,12.20
2018-04-19T05:51:02.348Z,13.10
2018-04-19T05:54:24.826Z,13.10
2018-04-19T05:57:47.235Z,13.50
2018-04-19T06:01:09.673Z,13.90
2018-04-19T06:04:32.132Z,14.40
2018-04-19T06:07:54.569Z,14.90
2018-04-19T06:11:17.017Z,15.30
2018-04-19T06:14:39.457Z,15.80
2018-04-19T06:18:01.895Z,16.10
2018-04-19T06:21:24.349Z,16.40
2018-04-19T06:24:46.793Z,16.70
2018-04-19T06:28:09.238Z,17.00
2018-04-19T06:31:32.446Z,17.60
2018-04-19T06:34:54.881Z,17.60
2018-04-19T06:38:18.086Z,18.30
2018-04-19T06:41:44.290Z,18.20
2018-04-19T06:45:06.724Z,18.70
2018-04-19T06:48:29.161Z,19.00
2018-04-19T06:51:51.632Z,19.10
2018-04-19T06:55:14.056Z,19.10
2018-04-19T06:58:36.489Z,19.20
2018-04-19T07:01:59.721Z,19.60
2018-04-19T07:05:22.922Z,19.90
2018-04-19T07:08:45.390Z,19.90
2018-04-19T07:12:07.814Z,20.30
2018-04-19T07:15:30.256Z,20.50
2018-04-19T07:18:52.699Z,20.80
2018-04-19T07:22:15.141Z,20.80
2018-04-19T07:25:37.597Z,20.80
2018-04-19T07:29:00.801Z,21.30
2018-04-19T07:32:23.295Z,21.30
2018-04-19T07:35:45.696Z,21.60
2018-04-19T07:39:08.933Z,22.00
2018-04-19T07:42:31.348Z,22.00
2018-04-19T07:45:54.545Z,22.90
2018-04-19T07:49:16.985Z,22.90
2018-04-19T07:52:40.197Z,23.50
2018-04-19T07:56:02.644Z,23.50
2018-04-19T07:59:26.837Z,23.70
2018-04-19T08:02:49.277Z,23.70
2018-04-19T08:06:11.716Z,23.70
2018-04-19T08:09:34.681Z,23.80
2018-04-19T08:12:57.146Z,23.70
2018-04-19T08:16:19.586Z,24.00
2018-04-19T08:19:42.789Z,24.20
2018-04-19T08:23:05.233Z,24.10
2018-04-19T08:26:28.447Z,24.70
2018-04-19T08:29:50.888Z,24.70
2018-04-19T08:33:14.097Z,24.80
2018-04-19T08:36:36.541Z,24.80
2018-04-19T08:39:58.977Z,24.90
2018-04-19T08:43:21.425Z,25.10
2018-04-19T08:46:43.873Z,25.10
2018-04-19T08:50:06.308Z,25.30
2018-04-19T08:53:29.413Z,25.60
2018-04-19T08:56:51.854Z,25.70
2018-04-19T09:00:14.290Z,26.00
2018-04-19T09:03:37.606Z,26.40
2018-04-19T09:07:00.033Z,26.40
2018-04-19T09:10:23.245Z,26.60
2018-04-19T09:13:45.693Z,26.60
2018-04-19T09:17:08.912Z,27.00
2018-04-19T09:20:31.337Z,27.00
2018-04-19T09:23:54.565Z,27.40
2018-04-19T09:27:16.993Z,27.30
2018-04-19T09:30:40.201Z,27.50
2018-04-19T09:34:02.641Z,27.50
2018-04-19T09:37:25.844Z,27.40
2018-04-19T09:40:48.288Z,27.40
2018-04-19T09:44:11.490Z,27.20
2018-04-19T09:47:33.929Z,27.20
2018-04-19T09:50:57.136Z,27.10
2018-04-19T09:54:19.612Z,27.10
2018-04-19T09:57:42.049Z,27.10
2018-04-19T10:01:09.200Z,27.40
2018-04-19T10:04:33.418Z,27.40
2018-04-19T10:07:56.633Z,27.70
2018-04-19T10:11:19.073Z,27.70
2018-04-19T10:14:42.272Z,27.80
2018-04-19T10:18:04.733Z,27.80
2018-04-19T10:21:27.244Z,28.10
2018-04-19T10:24:50.380Z,28.70
2018-04-19T10:28:12.827Z,28.60
2018-04-19T10:31:36.029Z,28.80
2018-04-19T10:34:58.469Z,28.80
2018-04-19T10:38:21.681Z,29.00
2018-04-19T10:41:44.129Z,28.90
2018-04-19T10:45:07.336Z,28.70
2018-04-19T10:48:29.780Z,28.60
2018-04-19T10:51:52.997Z,28.40
2018-04-19T10:55:15.432Z,28.40
2018-04-19T10:58:37.872Z,28.40
2018-04-19T11:02:00.321Z,28.20
2018-04-19T11:05:22.754Z,28.50
2018-04-19T11:08:45.194Z,28.40
2018-04-19T11:12:07.634Z,28.70
2018-04-19T11:15:30.065Z,28.80
2018-04-19T11:18:52.501Z,28.70
2018-04-19T11:22:14.940Z,28.70
2018-04-19T11:25:38.142Z,28.60
2018-04-19T11:29:00.581Z,28.60
2018-04-19T11:32:23.780Z,28.40
2018-04-19T11:35:46.213Z,28.40
2018-04-19T11:39:08.649Z,28.50
2018-04-19T11:42:31.095Z,28.80
2018-04-19T11:45:53.509Z,28.70
2018-04-19T11:49:15.958Z,28.50
2018-04-19T11:52:38.405Z,28.50
2018-04-19T11:56:00.832Z,28.70
2018-04-19T11:59:23.273Z,28.50
2018-04-19T12:02:46.486Z,28.30
2018-04-19T12:06:08.918Z,28.40
2018-04-19T12:09:31.358Z,28.60
2018-04-19T12:12:53.798Z,28.90
2018-04-19T12:16:16.226Z,29.10
2018-04-19T12:19:39.434Z,28.70
2018-04-19T12:23:01.866Z,28.70
2018-04-19T12:26:25.061Z,28.20
2018-04-19T12:29:47.500Z,28.20
2018-04-19T12:33:10.900Z,28.00
2018-04-19T12:36:33.318Z,27.90
2018-04-19T12:39:55.864Z,27.90
2018-04-19T12:43:18.317Z,27.60
2018-04-19T12:46:40.749Z,27.30
2018-04-19T12:50:03.189Z,27.30
2018-04-19T12:53:25.727Z,27.40
2018-04-19T12:56:48.153Z,27.40
2018-04-19T13:00:10.595Z,27.10
2018-04-19T13:03:33.145Z,26.90
2018-04-19T13:06:55.588Z,26.70
2018-04-19T13:10:18.046Z,26.60
2018-04-19T13:13:40.470Z,26.50
2018-04-19T13:17:02.910Z,26.30
2018-04-19T13:20:26.118Z,26.20
2018-04-19T13:23:48.549Z,26.20
2018-04-19T13:27:10.993Z,25.90
2018-04-19T13:30:33.437Z,25.90
2018-04-19T13:33:56.639Z,25.80
2018-04-19T13:37:19.082Z,25.80
2018-04-19T13:40:42.287Z,25.60
2018-04-19T13:44:05.983Z,25.60
2018-04-19T13:47:28.531Z,25.50
2018-04-19T13:50:51.725Z,25.30
2018-04-19T13:54:14.165Z,25.30
2018-04-19T13:57:37.372Z,25.20
2018-04-19T14:00:59.828Z,25.20
2018-04-19T14:04:22.321Z,25.20
2018-04-19T14:07:44.785Z,25.20
2018-04-19T14:11:07.238Z,25.00
2018-04-19T14:14:29.671Z,24.90
2018-04-19T14:17:55.204Z,24.90
2018-04-19T14:21:18.417Z,24.80
2018-04-19T14:24:40.853Z,24.80
2018-04-19T14:28:04.057Z,24.80
2018-04-19T14:31:26.493Z,24.70
2018-04-19T14:34:49.800Z,24.80
2018-04-19T14:38:12.228Z,24.80
2018-04-19T14:41:34.746Z,24.70
2018-04-19T14:44:57.200Z,24.70
2018-04-19T14:48:19.661Z,24.60
2018-04-19T14:51:42.121Z,24.60
2018-04-19T14:55:04.537Z,24.70
2018-04-19T14:58:26.993Z,24.50
2018-04-19T15:01:49.425Z,24.50
2018-04-19T15:05:11.877Z,24.50
2018-04-19T15:08:35.094Z,24.40
2018-04-19T15:11:57.538Z,24.40
2018-04-19T15:15:19.989Z,24.30
2018-04-19T15:18:43.187Z,24.30
2018-04-19T15:22:05.617Z,24.30
2018-04-19T15:25:28.056Z,24.20
2018-04-19T15:28:50.485Z,24.10
2018-04-19T15:32:12.944Z,24.10
2018-04-19T15:35:35.384Z,24.10
2018-04-19T15:38:58.576Z,24.00
2018-04-19T15:42:21.800Z,23.90
2018-04-19T15:45:44.236Z,23.80
2018-04-19T15:49:06.677Z,23.90
2018-04-19T15:52:29.105Z,23.80
2018-04-19T15:55:51.549Z,23.80
2018-04-19T15:59:13.972Z,23.70
2018-04-19T16:02:37.179Z,23.60
2018-04-19T16:05:59.609Z,23.50
2018-04-19T16:09:22.054Z,23.50
2018-04-19T16:12:44.503Z,23.50
2018-04-19T16:16:06.945Z,23.40
2018-04-19T16:19:29.377Z,23.40
2018-04-19T16:22:52.585Z,23.40
2018-04-19T16:26:15.018Z,23.40
2018-04-19T16:29:37.457Z,23.30
2018-04-19T16:32:59.890Z,23.20
2018-04-19T16:36:22.321Z,23.10
2018-04-19T16:39:45.525Z,23.10
2018-04-19T16:43:07.965Z,23.10
2018-04-19T16:46:31.165Z,23.00
2018-04-19T16:49:53.596Z,22.90
2018-04-19T16:53:16.053Z,22.80
2018-04-19T16:56:38.489Z,22.80
2018-04-19T17:00:00.926Z,22.80
2018-04-19T17:03:23.365Z,22.60
2018-04-19T17:06:46.564Z,22.50
2018-04-19T17:10:09.757Z,22.50
2018-04-19T17:13:32.195Z,22.40
2018-04-19T17:16:54.633Z,22.40
2018-04-19T17:20:17.067Z,22.30
2018-04-19T17:23:39.506Z,22.20
2018-04-19T17:27:02.715Z,22.00
2018-04-19T17:30:25.145Z,21.90
2018-04-19T17:33:48.350Z,21.80
2018-04-19T17:37:10.790Z,21.80
2018-04-19T17:40:33.264Z,21.80
2018-04-19T17:43:56.761Z,21.60
2018-04-19T17:47:19.413Z,21.50
2018-04-19T17:50:41.865Z,21.50
2018-04-19T17:54:04.306Z,21.30
2018-04-19T17:57:26.901Z,21.20
2018-04-19T18:00:49.511Z,21.10
2018-04-19T18:04:11.960Z,21.00
2018-04-19T18:07:34.415Z,20.80
2018-04-19T18:10:57.609Z,20.60
2018-04-19T18:14:20.050Z,20.60
2018-04-19T18:17:42.543Z,20.50
2018-04-19T18:21:04.979Z,20.40
2018-04-19T18:24:27.429Z,20.30
2018-04-19T18:27:49.880Z,20.20
2018-04-19T18:31:12.353Z,20.10
2018-04-19T18:34:34.797Z,19.90
2018-04-19T18:37:57.245Z,19.80
2018-04-19T18:41:19.681Z,19.70
2018-04-19T18:44:42.901Z,19.50
2018-04-19T18:48:05.339Z,19.50
2018-04-19T18:51:27.785Z,19.40
2018-04-19T18:54:52.386Z,19.10
2018-04-19T18:58:14.833Z,19.10
2018-04-19T19:01:37.309Z,19.00
2018-04-19T19:04:59.749Z,18.90
2018-04-19T19:08:22.193Z,18.80
2018-04-19T19:11:45.856Z,18.60
2018-04-19T19:19:37.241Z,18.10
2018-04-19T19:23:00.473Z,18.00
2018-04-19T19:26:22.909Z,18.00
2018-04-19T19:29:45.412Z,17.90
2018-04-19T19:33:07.911Z,17.70
2018-04-19T19:36:30.337Z,17.60
2018-04-19T19:39:52.826Z,17.50
2018-04-19T19:43:15.213Z,17.40
2018-04-19T19:46:38.449Z,17.10
2018-04-19T19:50:01.013Z,17.00
2018-04-19T19:53:23.442Z,16.90
2018-04-19T19:56:46.643Z,16.70
2018-04-19T20:00:09.090Z,16.70
2018-04-19T20:03:32.304Z,16.50
2018-04-19T20:06:54.789Z,16.50
2018-04-19T20:10:17.987Z,16.30
2018-04-19T20:13:40.552Z,16.30
2018-04-19T20:17:02.997Z,16.20
2018-04-19T20:20:25.457Z,16.10
2018-04-19T20:23:47.973Z,16.00
2018-04-19T20:27:10.401Z,15.90
2018-04-19T20:30:32.841Z,15.90
2018-04-19T20:33:55.334Z,15.80
2018-04-19T20:37:17.769Z,15.70
2018-04-19T20:40:40.210Z,15.60
2018-04-19T20:44:03.422Z,15.40
2018-04-19T20:47:25.848Z,15.40
2018-04-19T20:50:49.060Z,15.20
2018-04-19T20:54:11.488Z,15.20
2018-04-19T20:57:33.947Z,15.20
2018-04-19T21:00:56.378Z,15.10
2018-04-19T21:04:18.819Z,15.00
2018-04-19T21:07:41.279Z,15.00
2018-04-19T21:11:04.453Z,14.80
2018-04-19T21:14:27.653Z,14.80
2018-04-19T21:17:50.101Z,14.70
2018-04-19T21:21:12.537Z,14.70
2018-04-19T21:24:34.997Z,14.60
2018-04-19T21:27:57.418Z,14.60
2018-04-19T21:31:19.840Z,14.50
2018-04-19T21:34:43.041Z,14.40
2018-04-19T21:38:06.258Z,14.30
2018-04-19T21:41:28.697Z,14.30
2018-04-19T21:44:51.131Z,14.30
2018-04-19T21:48:13.570Z,14.20
2018-04-19T21:51:36.004Z,14.20
2018-04-19T21:54:58.469Z,14.10
2018-04-19T21:58:20.918Z,14.10
2018-04-19T22:01:44.180Z,14.00
2018-04-19T22:05:06.567Z,14.00
2018-04-19T22:08:29.018Z,13.90
2018-04-19T22:11:52.234Z,13.90
2018-04-19T22:15:14.663Z,13.80
2018-04-19T22:18:38.590Z,13.70
2018-04-19T22:22:01.005Z,13.70
2018-04-19T22:25:23.446Z,13.60
2018-04-19T22:28:45.878Z,13.60
2018-04-19T22:32:08.313Z,13.60
2018-04-19T22:35:31.522Z,13.50
2018-04-19T22:38:53.969Z,13.50
2018-04-19T22:42:17.193Z,13.50
2018-04-19T22:45:39.623Z,13.50
2018-04-19T22:49:02.076Z,13.50
2018-04-19T22:52:25.302Z,13.50
2018-04-19T22:55:47.777Z,13.50
2018-04-19T22:59:10.217Z,13.50
2018-04-19T23:02:32.654Z,13.50
2018-04-19T23:05:55.860Z,13.50
2018-04-19T23:09:18.325Z,13.50
2018-04-19T23:12:40.773Z,13.40
2018-04-19T23:16:03.982Z,13.40
2018-04-19T23:19:26.421Z,13.40
2018-04-19T23:22:49.619Z,13.40
2018-04-19T23:26:12.113Z,13.40
2018-04-19T23:29:34.561Z,13.40
2018-04-19T23:32:57.157Z,13.30
2018-04-19T23:36:19.591Z,13.30
2018-04-19T23:39:42.037Z,13.20
2018-04-19T23:43:05.238Z,13.10
2018-04-19T23:46:27.669Z,13.10
2018-04-19T23:49:50.882Z,13.00
2018-04-19T23:53:13.305Z,13.00
2018-04-19T23:56:35.741Z,13.00
2018-04-19T23:59:58.181Z,12.90
